Time;durP1;ratioP1;P1;durP2;ratioP2;P2;SDS_P1;SDS_P2;PMS_P1;PMS_P2;Temp;Humidity;BMP_temperature;BMP_pressure;BME280_temperature;BME280_humidity;BME280_pressure;Samples;Min_cycle;Max_cycle;Signal;HPM_P1;HPM_P2
2023/02/16 00:01:19;;;;;;;;;;;;;;;-0.56;53.72;100862.06;4832577;29;19924;-83
2023/02/16 00:03:46;;;;;;;;;;;;;;;-0.59;54.20;100865.31;4831371;29;19925;-82
2023/02/16 00:06:15;;;;;;;;;;;;;;;-0.56;53.83;100859.50;4833248;29;20072;-84
2023/02/16 00:08:46;;;;;;;;;;;;;;;-0.54;54.26;100852.75;4816370;29;19924;-82
2023/02/16 00:14:07;;;;;;;;;;;;;;;-0.52;54.13;100857.19;4813437;29;19932;-82
2023/02/16 00:16:33;;;;;;;;;;;;;;;-0.48;54.05;100855.66;4799002;29;20045;-81
2023/02/16 00:18:59;;;;;;;;;;;;;;;-0.45;54.37;100850.69;4829717;29;19932;-84
2023/02/16 00:21:26;;;;;;;;;;;;;;;-0.41;54.52;100852.63;4831809;29;19924;-81
2023/02/16 00:23:53;;;;;;;;;;;;;;;-0.38;53.89;100854.47;4816421;29;19929;-84
2023/02/16 00:26:23;;;;;;;;;;;;;;;-0.34;54.35;100854.72;4801452;29;19987;-81
2023/02/16 00:28:51;;;;;;;;;;;;;;;-0.32;53.77;100852.22;4818545;29;19932;-83
2023/02/16 00:31:22;;;;;;;;;;;;;;;-0.33;53.91;100853.03;4802185;29;19959;-81
2023/02/16 00:33:49;;;;;;;;;;;;;;;-0.27;54.69;100850.78;4817394;29;19932;-80
2023/02/16 00:36:21;;;;;;;;;;;;;;;-0.26;54.42;100855.13;4817007;29;19972;-79
2023/02/16 00:38:51;;;;;;;;;;;;;;;-0.28;54.01;100851.59;4816243;29;19935;-81
2023/02/16 00:44:26;;;;;;;;;;;;;;;-0.35;54.31;100840.16;4818944;29;19925;-80
2023/02/16 00:46:54;;;;;;;;;;;;;;;-0.32;53.85;100845.41;4830606;29;19931;-81
2023/02/16 00:49:21;;;;;;;;;;;;;;;-0.36;53.88;100842.63;4834205;29;19928;-80
2023/02/16 00:51:47;;;;;;;;;;;;;;;-0.40;54.58;100839.03;4818507;29;19929;-82
2023/02/16 00:54:18;;;;;;;;;;;;;;;-0.41;54.57;100844.97;4804314;29;20400;-82
2023/02/16 00:56:51;;;;;;;;;;;;;;;-0.39;54.32;100839.91;4833461;29;19925;-80
2023/02/16 00:59:21;;;;;;;;;;;;;;;-0.37;54.44;100845.97;4848794;29;19934;-82
2023/02/16 01:01:50;;;;;;;;;;;;;;;-0.36;53.92;100840.97;4817948;29;19928;-82
2023/02/16 01:04:21;;;;;;;;;;;;;;;-0.33;54.26;100847.91;4806825;29;19929;-82
2023/02/16 01:12:26;;;;;;;;;;;;;;;-0.36;53.66;100852.84;4821341;29;19940;-80
2023/02/16 01:14:54;;;;;;;;;;;;;;;-0.39;53.83;100851.03;4804637;29;19925;-80
2023/02/16 01:17:22;;;;;;;;;;;;;;;-0.39;53.89;100858.72;4820984;29;19947;-81
2023/02/16 01:19:51;;;;;;;;;;;;;;;-0.38;54.27;100857.00;4808167;29;19917;-82
2023/02/16 01:22:18;;;;;;;;;;;;;;;-0.32;54.12;100852.22;4835492;29;19928;-83
2023/02/16 01:24:44;;;;;;;;;;;;;;;-0.44;54.25;100846.47;4852110;29;19917;-83
2023/02/16 01:27:12;;;;;;;;;;;;;;;-0.48;54.23;100856.53;4847660;29;19956;-81
2023/02/16 01:29:57;;;;;;;;;;;;;;;-0.85;54.18;100815.34;4828306;29;19924;-84
2023/02/16 01:32:24;;;;;;;;;;;;;;;-0.61;54.03;100849.91;4808004;29;19936;-81
2023/02/16 01:34:54;;;;;;;;;;;;;;;-0.55;54.51;100851.03;4829901;29;19948;-86
2023/02/16 01:37:27;;;;;;;;;;;;;;;-0.61;54.49;100851.56;4805214;29;19953;-86
2023/02/16 01:39:53;;;;;;;;;;;;;;;-0.65;54.14;100855.66;4825346;29;20026;-81
2023/02/16 01:42:39;;;;;;;;;;;;;;;-0.64;54.10;100856.50;4824992;29;19909;-83
2023/02/16 01:45:14;;;;;;;;;;;;;;;-0.78;53.79;100850.69;4838684;29;19925;-84
2023/02/16 01:47:56;;;;;;;;;;;;;;;-0.78;54.70;100851.53;4802590;29;20019;-83
2023/02/16 01:50:26;;;;;;;;;;;;;;;-0.81;54.26;100853.94;4801231;29;19961;-81
2023/02/16 01:53:02;;;;;;;;;;;;;;;-0.77;54.83;100854.97;4801786;29;19943;-86
2023/02/16 02:06:50;;;;;;;;;;;;;;;-0.65;54.46;100867.53;4816779;29;20031;-86
2023/02/16 02:09:24;;;;;;;;;;;;;;;-0.65;54.43;100857.31;4828371;29;19924;-87
2023/02/16 02:12:36;;;;;;;;;;;;;;;-0.74;54.50;100854.28;4795957;29;19936;-87
2023/02/16 02:15:08;;;;;;;;;;;;;;;-0.78;54.30;100854.09;4797695;29;19925;-88
2023/02/16 02:17:50;;;;;;;;;;;;;;;-0.75;54.52;100855.94;4785794;29;19970;-88
2023/02/16 02:23:29;;;;;;;;;;;;;;;;;;;;;
2023/02/16 02:23:42;;;;;;;;;;;;;;;-0.73;54.47;100859.47;4829268;29;19981;-90
2023/02/16 02:26:49;;;;;;;;;;;;;;;-0.74;54.56;100865.38;4805469;29;19925;-89
2023/02/16 02:30:01;;;;;;;;;;;;;;;-0.76;54.61;100859.28;4825675;29;20417;-88
2023/02/16 02:33:28;;;;;;;;;;;;;;;-0.79;54.34;100856.59;4823161;29;19940;-89
2023/02/16 03:02:08;;;;;;;;;;;;;;;;;;;;;
2023/02/16 03:05:54;;;;;;;;;;;;;;;-0.70;54.15;100856.19;4708158;30;20328;-85
2023/02/16 03:08:30;;;;;;;;;;;;;;;-0.67;54.64;100856.38;4803259;29;19931;-85
2023/02/16 03:14:39;;;;;;;;;;;;;;;-0.59;55.03;100855.09;4830030;29;19928;-86
2023/02/16 03:32:03;;;;;;;;;;;;;;;-0.67;55.05;100856.38;4818724;29;19936;-86
2023/02/16 03:35:21;;;;;;;;;;;;;;;-0.65;55.06;100860.75;4806976;29;19925;-86
2023/02/16 03:38:38;;;;;;;;;;;;;;;-0.55;54.64;100861.25;4800166;29;20385;-86
2023/02/16 03:41:11;;;;;;;;;;;;;;;-0.57;54.75;100865.41;4799136;29;19928;-88
2023/02/16 03:43:37;;;;;;;;;;;;;;;-0.56;55.00;100859.50;4830726;29;19925;-85
2023/02/16 03:46:06;;;;;;;;;;;;;;;-0.74;54.38;100860.25;4798785;29;19925;-86
2023/02/16 03:48:43;;;;;;;;;;;;;;;-0.96;54.97;100823.31;4782605;29;20323;-87
2023/02/16 03:51:21;;;;;;;;;;;;;;;-0.78;54.58;100854.09;4827442;29;20358;-87
2023/02/16 03:54:45;;;;;;;;;;;;;;;-0.84;55.02;100856.31;4800058;29;20362;-87
2023/02/16 03:57:20;;;;;;;;;;;;;;;-0.83;55.28;100852.97;4802771;29;20334;-85
2023/02/16 03:59:46;;;;;;;;;;;;;;;-0.76;55.44;100852.50;4798702;29;19933;-88
2023/02/16 04:02:30;;;;;;;;;;;;;;;-0.76;55.19;100849.06;4812190;29;19925;-87
2023/02/16 04:05:01;;;;;;;;;;;;;;;-0.79;55.07;100847.22;4798898;29;19929;-87
2023/02/16 04:07:32;;;;;;;;;;;;;;;-0.76;55.29;100849.97;4810477;29;19931;-86
2023/02/16 04:10:49;;;;;;;;;;;;;;;-0.80;55.12;100849.72;4824557;29;20420;-83
2023/02/16 04:16:34;;;;;;;;;;;;;;;-0.77;54.77;100844.75;4791039;29;19984;-84
2023/02/16 04:19:29;;;;;;;;;;;;;;;;;;;;;
2023/02/16 04:21:58;;;;;;;;;;;;;;;-0.78;54.84;100845.56;4790843;29;20020;-86
2023/02/16 04:24:27;;;;;;;;;;;;;;;-0.84;55.30;100842.69;4815852;29;19925;-84
2023/02/16 04:32:00;;;;;;;;;;;;;;;;;;;;;
2023/02/16 04:34:38;;;;;;;;;;;;;;;-0.77;55.16;100850.75;4793294;29;20452;-89
2023/02/16 04:37:11;;;;;;;;;;;;;;;-0.70;55.79;100848.53;4810741;29;19925;-87
2023/02/16 04:40:52;;;;;;;;;;;;;;;-0.73;55.29;100841.56;4815671;29;19992;-89
2023/02/16 04:44:56;;;;;;;;;;;;;;;-0.94;54.78;100843.84;4774200;30;19961;-88
2023/02/16 04:47:44;;;;;;;;;;;;;;;-0.82;55.98;100846.19;4756389;30;19942;-86
2023/02/16 04:51:12;;;;;;;;;;;;;;;-1.10;56.02;100802.13;4744371;30;19948;-84
2023/02/16 04:53:47;;;;;;;;;;;;;;;-0.86;55.11;100850.25;4751072;30;20021;-83
2023/02/16 04:56:16;;;;;;;;;;;;;;;-0.83;55.54;100850.41;4771579;29;20278;-85
2023/02/16 04:58:46;;;;;;;;;;;;;;;-0.78;56.23;100849.00;4803119;29;19925;-86
2023/02/16 05:01:58;;;;;;;;;;;;;;;;;;;;;
2023/02/16 05:05:35;;;;;;;;;;;;;;;-0.88;55.46;100850.97;4796004;29;20029;-89
2023/02/16 05:08:04;;;;;;;;;;;;;;;-0.89;56.27;100854.31;4745870;30;19930;-83
2023/02/16 05:10:37;;;;;;;;;;;;;;;-0.92;55.57;100853.34;4742803;30;19926;-86
2023/02/16 05:16:31;;;;;;;;;;;;;;;-0.88;56.49;100858.63;4771113;30;20012;-86
2023/02/16 05:23:21;;;;;;;;;;;;;;;-0.89;56.06;100849.22;4780984;30;20028;-86
2023/02/16 05:26:38;;;;;;;;;;;;;;;;;;;;;
2023/02/16 05:32:52;;;;;;;;;;;;;;;-0.88;56.56;100856.06;4773936;30;19930;-88
2023/02/16 05:35:29;;;;;;;;;;;;;;;-0.84;56.55;100864.00;4773040;30;19933;-86
2023/02/16 05:38:07;;;;;;;;;;;;;;;-0.76;56.80;100855.06;4773918;30;20001;-88
2023/02/16 05:40:44;;;;;;;;;;;;;;;-0.78;56.69;100859.22;4766252;29;20029;-86
2023/02/16 05:43:22;;;;;;;;;;;;;;;-0.79;56.56;100856.59;4819521;29;19929;-86
2023/02/16 05:45:50;;;;;;;;;;;;;;;-0.80;56.80;100858.25;4828273;29;19925;-78
2023/02/16 05:48:16;;;;;;;;;;;;;;;-0.73;56.71;100856.91;4802067;29;19992;-84
2023/02/16 05:50:43;;;;;;;;;;;;;;;-0.66;56.35;100858.13;4813921;29;19925;-82
2023/02/16 05:53:09;;;;;;;;;;;;;;;-0.71;56.53;100860.41;4818746;29;19929;-83
2023/02/16 05:55:35;;;;;;;;;;;;;;;-0.75;56.27;100858.50;4791261;29;20059;-84
2023/02/16 05:58:16;;;;;;;;;;;;;;;;;;;;;
2023/02/16 06:00:43;;;;;;;;;;;;;;;-0.71;56.63;100859.56;4875129;29;19951;-86
2023/02/16 06:03:10;;;;;;;;;;;;;;;-0.73;56.12;100861.16;4872556;29;20387;-85
2023/02/16 06:05:36;;;;;;;;;;;;;;;-0.73;56.38;100856.03;4874678;29;20388;-85
2023/02/16 06:08:47;;;;;;;;;;;;;;;-0.74;56.33;100854.28;4881634;29;19919;-83
2023/02/16 06:15:23;;;;;;;;;;;;;;;-0.70;56.44;100854.50;4878598;29;20003;-83
2023/02/16 06:21:44;;;;;;;;;;;;;;;-0.63;57.06;100854.06;4855028;29;19942;-85
2023/02/16 06:24:48;;;;;;;;;;;;;;;-0.62;55.75;100854.91;4872868;29;19928;-84
2023/02/16 06:27:27;;;;;;;;;;;;;;;-0.70;56.46;100851.94;4896081;29;19927;-82
2023/02/16 06:30:22;;;;;;;;;;;;;;;-0.59;56.88;100855.09;4864305;29;19955;-85
2023/02/16 06:32:54;;;;;;;;;;;;;;;-0.52;56.65;100856.28;4898818;29;19991;-85
2023/02/16 06:35:20;;;;;;;;;;;;;;;-0.47;56.72;100853.19;4856220;29;19923;-84
2023/02/16 06:37:58;;;;;;;;;;;;;;;-0.46;56.09;100856.63;4887413;29;19957;-83
2023/02/16 06:40:29;;;;;;;;;;;;;;;-0.47;56.67;100853.19;4880166;29;19924;-82
2023/02/16 06:43:12;;;;;;;;;;;;;;;-0.34;56.79;100857.28;4894215;29;19982;-84
2023/02/16 06:45:47;;;;;;;;;;;;;;;-0.21;56.59;100856.22;4865721;29;19924;-84
2023/02/16 06:48:16;;;;;;;;;;;;;;;-0.12;55.73;100852.38;4865364;29;19939;-84
2023/02/16 06:50:53;;;;;;;;;;;;;;;-0.07;55.11;100851.81;4893971;29;20354;-82
2023/02/16 06:53:20;;;;;;;;;;;;;;;0.03;56.51;100847.16;4878317;29;19919;-83
2023/02/16 06:55:56;;;;;;;;;;;;;;;0.12;56.56;100847.59;4858440;29;19924;-83
2023/02/16 06:58:28;;;;;;;;;;;;;;;0.27;55.46;100850.97;4867484;29;19939;-82
2023/02/16 07:01:08;;;;;;;;;;;;;;;0.40;55.40;100844.75;4879382;29;19970;-85
2023/02/16 07:03:45;;;;;;;;;;;;;;;0.47;55.50;100840.81;4887611;29;19960;-84
2023/02/16 07:06:16;;;;;;;;;;;;;;;0.57;55.81;100842.13;4874746;29;19996;-83
2023/02/16 07:08:52;;;;;;;;;;;;;;;0.66;55.94;100836.56;4828675;29;19935;-83
2023/02/16 07:11:54;;;;;;;;;;;;;;;0.70;55.26;100836.78;4842054;29;20027;-83
2023/02/16 07:14:34;;;;;;;;;;;;;;;0.68;55.05;100835.84;4858530;29;19991;-82
2023/02/16 07:17:08;;;;;;;;;;;;;;;0.58;54.40;100849.00;4849972;29;19923;-84
2023/02/16 07:19:49;;;;;;;;;;;;;;;0.60;55.11;100842.28;4872546;29;19928;-83
2023/02/16 07:22:16;;;;;;;;;;;;;;;0.60;55.18;100840.59;4858309;29;19924;-84
2023/02/16 07:24:54;;;;;;;;;;;;;;;;;;;;;
2023/02/16 07:27:58;;;;;;;;;;;;;;;0.69;54.41;100837.59;4856465;29;20357;-84
2023/02/16 07:30:45;;;;;;;;;;;;;;;0.73;54.42;100839.50;4863204;29;19959;-84
2023/02/16 07:33:15;;;;;;;;;;;;;;;0.70;54.76;100844.47;4892266;29;19928;-83
2023/02/16 07:35:49;;;;;;;;;;;;;;;0.78;54.76;100843.97;4842630;29;20285;-84
2023/02/16 07:39:29;;;;;;;;;;;;;;;0.97;54.77;100840.59;4838510;29;19996;-84
2023/02/16 07:42:33;;;;;;;;;;;;;;;;;;;;;
2023/02/16 07:45:24;;;;;;;;;;;;;;;0.90;54.04;100835.19;4851382;29;19938;-86
2023/02/16 07:48:24;;;;;;;;;;;;;;;0.82;54.06;100839.06;4839111;29;19932;-86
2023/02/16 07:51:30;;;;;;;;;;;;;;;0.88;54.60;100829.09;4822315;29;19935;-84
2023/02/16 07:54:10;;;;;;;;;;;;;;;1.18;54.95;100833.00;4831162;29;19928;-86
2023/02/16 07:57:21;;;;;;;;;;;;;;;1.52;54.92;100838.78;4816638;29;20023;-89
2023/02/16 08:01:13;;;;;;;;;;;;;;;;;;;;;
2023/02/16 08:07:40;;;;;;;;;;;;;;;1.79;53.99;100837.44;4780857;30;20115;-86
2023/02/16 08:13:33;;;;;;;;;;;;;;;1.94;53.65;100833.75;4874401;29;19935;-85
2023/02/16 08:20:04;;;;;;;;;;;;;;;2.03;53.40;100835.84;4890778;29;19924;-85
2023/02/16 08:23:51;;;;;;;;;;;;;;;2.17;52.82;100837.31;4853626;29;19924;-84
2023/02/16 08:26:39;;;;;;;;;;;;;;;2.33;53.22;100825.97;4873843;29;20383;-82
2023/02/16 08:29:44;;;;;;;;;;;;;;;2.37;52.42;100827.84;4878215;29;20019;-83
2023/02/16 08:32:19;;;;;;;;;;;;;;;2.40;52.42;100827.13;4822485;29;19928;-85
2023/02/16 08:35:07;;;;;;;;;;;;;;;2.54;53.18;100825.09;4856781;29;19924;-80
2023/02/16 08:38:12;;;;;;;;;;;;;;;2.77;52.94;100820.88;4864291;29;19923;-86
2023/02/16 08:40:51;;;;;;;;;;;;;;;3.12;52.77;100820.47;4828735;29;19928;-84
2023/02/16 08:44:27;;;;;;;;;;;;;;;3.27;52.36;100822.75;4835543;29;19925;-84
2023/02/16 08:50:14;;;;;;;;;;;;;;;3.51;51.89;100817.63;4849583;29;19923;-84
2023/02/16 08:52:40;;;;;;;;;;;;;;;3.68;51.49;100819.91;4837500;29;19928;-85
2023/02/16 08:55:06;;;;;;;;;;;;;;;3.82;51.36;100823.88;4879232;29;19924;-85
2023/02/16 08:57:33;;;;;;;;;;;;;;;3.89;50.48;100824.97;4871403;29;19954;-84
2023/02/16 09:02:59;;;;;;;;;;;;;;;4.00;50.87;100815.88;4821044;29;19924;-85
2023/02/16 09:08:20;;;;;;;;;;;;;;;4.03;50.21;100815.13;4829350;29;19923;-83
2023/02/16 09:11:08;;;;;;;;;;;;;;;3.89;50.05;100814.66;4864470;29;19928;-84
2023/02/16 09:13:54;;;;;;;;;;;;;;;3.61;49.27;100805.97;4796798;29;19958;-86
2023/02/16 09:16:27;;;;;;;;;;;;;;;3.83;50.33;100810.19;4828952;29;20035;-85
2023/02/16 09:18:54;;;;;;;;;;;;;;;3.93;49.46;100811.38;4847350;29;19924;-85
2023/02/16 09:21:24;;;;;;;;;;;;;;;4.07;50.05;100804.97;4850571;29;19928;-85
2023/02/16 09:23:56;;;;;;;;;;;;;;;3.94;49.15;100815.69;4832567;29;19950;-84
2023/02/16 09:26:50;;;;;;;;;;;;;;;3.75;48.94;100809.03;4850773;29;19928;-85
2023/02/16 09:29:28;;;;;;;;;;;;;;;3.47;49.79;100801.19;4845748;29;19935;-87
2023/02/16 09:32:16;;;;;;;;;;;;;;;3.25;49.57;100808.97;4815809;29;19935;-86
2023/02/16 09:34:48;;;;;;;;;;;;;;;3.38;48.86;100810.28;4845735;29;19931;-85
2023/02/16 09:37:20;;;;;;;;;;;;;;;3.22;49.38;100817.41;4832657;29;19992;-82
2023/02/16 09:41:11;;;;;;;;;;;;;;;3.26;49.26;100808.13;4820831;29;20375;-85
2023/02/16 09:44:02;;;;;;;;;;;;;;;3.44;49.42;100815.63;4853283;29;19935;-83
2023/02/16 09:46:41;;;;;;;;;;;;;;;3.75;49.64;100807.31;4859619;29;19935;-86
2023/02/16 09:50:22;;;;;;;;;;;;;;;3.65;48.84;100801.78;4861697;29;19952;-86
2023/02/16 09:53:30;;;;;;;;;;;;;;;3.20;47.90;100795.91;4873832;29;19964;-86
2023/02/16 09:56:31;;;;;;;;;;;;;;;2.71;48.89;100754.69;4861967;29;19924;-84
2023/02/16 09:59:32;;;;;;;;;;;;;;;3.09;48.80;100802.34;4853052;29;20011;-83
2023/02/16 10:02:06;;;;;;;;;;;;;;;2.89;48.29;100794.75;4867178;29;19912;-83
2023/02/16 10:05:11;;;;;;;;;;;;;;;2.81;48.40;100801.28;4830518;29;19917;-82
2023/02/16 10:07:56;;;;;;;;;;;;;;;2.67;47.58;100796.50;4843448;29;19987;-85
2023/02/16 10:11:00;;;;;;;;;;;;;;;2.66;47.60;100794.75;4856712;29;19950;-86
2023/02/16 10:13:53;;;;;;;;;;;;;;;2.59;48.59;100799.59;4829804;29;19933;-85
2023/02/16 10:17:11;;;;;;;;;;;;;;;2.66;47.94;100791.28;4832567;29;19987;-86
2023/02/16 10:20:29;;;;;;;;;;;;;;;2.66;48.49;100791.28;4819295;29;19908;-87
2023/02/16 10:23:51;;;;;;;;;;;;;;;2.55;47.96;100796.91;4830005;29;19952;-85
2023/02/16 11:13:15;;;;;;;;;;;;;;;3.05;46.37;100778.22;4501046;23;20376;-86
2023/02/16 11:16:10;;;;;;;;;;;;;;;3.27;46.42;100777.31;4851446;29;20433;-86
2023/02/16 11:22:46;;;;;;;;;;;;;;;;;;;;;
2023/02/16 11:25:28;;;;;;;;;;;;;;;3.39;46.23;100778.59;4856642;29;19932;-86
2023/02/16 11:28:10;;;;;;;;;;;;;;;;;;;;;
2023/02/16 11:31:33;;;;;;;;;;;;;;;3.05;45.63;100772.19;4850778;29;19904;-87
2023/02/16 11:34:14;;;;;;;;;;;;;;;2.82;46.27;100774.78;4848809;29;19989;-84
2023/02/16 11:36:47;;;;;;;;;;;;;;;2.71;45.70;100770.09;4833230;29;19924;-83
2023/02/16 11:39:44;;;;;;;;;;;;;;;2.50;46.49;100766.69;4848006;29;19932;-83
2023/02/16 11:42:34;;;;;;;;;;;;;;;2.65;46.05;100769.88;4864881;29;19950;-84
2023/02/16 11:45:11;;;;;;;;;;;;;;;2.76;45.92;100766.84;4863574;29;20015;-82
2023/02/16 11:51:29;;;;;;;;;;;;;;;2.82;45.47;100772.19;4810347;29;19924;-84
2023/02/16 11:54:03;;;;;;;;;;;;;;;2.66;45.45;100771.63;4869607;29;19927;-84
2023/02/16 11:56:47;;;;;;;;;;;;;;;2.59;45.85;100769.63;4848901;29;19943;-85
2023/02/16 11:59:20;;;;;;;;;;;;;;;2.52;45.69;100768.50;4853898;29;19959;-82
2023/02/16 12:02:13;;;;;;;;;;;;;;;2.36;45.65;100767.00;4846855;29;19969;-85
2023/02/16 12:04:51;;;;;;;;;;;;;;;2.28;45.96;100770.09;4844470;29;19935;-84
2023/02/16 12:07:25;;;;;;;;;;;;;;;2.21;45.78;100761.25;4859195;29;19924;-84
2023/02/16 12:10:19;;;;;;;;;;;;;;;2.26;45.87;100757.19;4859825;29;19924;-84
2023/02/16 12:13:37;;;;;;;;;;;;;;;2.32;46.13;100761.69;4849134;29;19945;-86
2023/02/16 12:17:06;;;;;;;;;;;;;;;2.28;45.76;100764.94;4847644;29;19970;-85
2023/02/16 12:19:57;;;;;;;;;;;;;;;2.19;45.74;100758.66;4835369;29;19924;-82
2023/02/16 12:22:55;;;;;;;;;;;;;;;2.14;46.05;100761.81;4844297;29;19904;-85
2023/02/16 12:25:48;;;;;;;;;;;;;;;2.16;45.91;100762.75;4862859;29;19924;-81
2023/02/16 12:28:50;;;;;;;;;;;;;;;1.97;45.42;100762.00;4858752;29;19931;-84
2023/02/16 12:31:47;;;;;;;;;;;;;;;1.67;45.67;100772.72;4859523;29;19923;-85
2023/02/16 12:34:42;;;;;;;;;;;;;;;1.52;45.80;100766.94;4836674;29;19940;-85
2023/02/16 12:37:20;;;;;;;;;;;;;;;1.71;46.20;100769.50;4805733;29;19936;-83
2023/02/16 12:40:14;;;;;;;;;;;;;;;1.90;46.05;100765.13;4829655;29;20437;-82
2023/02/16 12:43:08;;;;;;;;;;;;;;;2.00;45.59;100767.28;4845193;29;19932;-84
2023/02/16 12:46:02;;;;;;;;;;;;;;;2.12;45.76;100769.47;4841310;29;19953;-83
2023/02/16 12:48:29;;;;;;;;;;;;;;;2.16;45.42;100767.91;4831997;29;19924;-86
2023/02/16 12:51:13;;;;;;;;;;;;;;;;;;;;;
2023/02/16 12:54:13;;;;;;;;;;;;;;;2.21;45.55;100771.53;4848542;29;20419;-83
2023/02/16 13:00:48;;;;;;;;;;;;;;;2.00;45.34;100769.84;4816272;29;19929;-81
2023/02/16 13:06:55;;;;;;;;;;;;;;;1.84;46.10;100770.88;4863377;29;19924;-86
2023/02/16 13:13:10;;;;;;;;;;;;;;;1.63;45.69;100778.56;4861481;29;19928;-86
2023/02/16 13:16:22;;;;;;;;;;;;;;;1.60;45.52;100768.16;4846842;29;20427;-82
2023/02/16 13:18:56;;;;;;;;;;;;;;;1.47;45.55;100766.75;4833567;29;19971;-83
2023/02/16 13:22:54;;;;;;;;;;;;;;;1.49;45.79;100768.56;4845065;29;19924;-85
2023/02/16 13:26:10;;;;;;;;;;;;;;;;;;;;;
2023/02/16 13:32:53;;;;;;;;;;;;;;;1.25;46.14;100768.38;4842597;29;19928;-83
2023/02/16 13:36:37;;;;;;;;;;;;;;;1.16;46.16;100779.09;4849782;29;19968;-84
2023/02/16 13:39:07;;;;;;;;;;;;;;;0.96;46.08;100773.06;4790200;29;20267;-82
2023/02/16 13:41:59;;;;;;;;;;;;;;;0.83;46.41;100771.63;4775890;29;19925;-83
2023/02/16 13:45:20;;;;;;;;;;;;;;;0.59;46.03;100774.78;4776519;29;20043;-82
2023/02/16 13:48:12;;;;;;;;;;;;;;;0.60;46.63;100780.81;4763720;29;20025;-84
2023/02/16 13:54:52;;;;;;;;;;;;;;;0.45;46.31;100778.38;4863106;29;20435;-81
2023/02/16 14:01:46;;;;;;;;;;;;;;;0.31;46.78;100790.53;4849312;29;19924;-84
2023/02/16 14:04:56;;;;;;;;;;;;;;;0.01;46.86;100784.78;4846054;29;19944;-83
2023/02/16 14:07:53;;;;;;;;;;;;;;;-0.10;47.03;100790.22;4825745;29;19996;-84
2023/02/16 14:14:47;;;;;;;;;;;;;;;-0.42;47.69;100786.94;4806162;29;19940;-85
2023/02/16 14:21:28;;;;;;;;;;;;;;;;;;;;;
2023/02/16 14:28:30;;;;;;;;;;;;;;;-1.63;48.30;100793.25;4852832;29;19924;-81
2023/02/16 14:31:02;;;;;;;;;;;;;;;-1.78;48.06;100795.84;4836686;29;19932;-82
2023/02/16 14:33:43;;;;;;;;;;;;;;;-1.87;48.41;100792.75;4818961;29;20300;-83
2023/02/16 14:36:25;;;;;;;;;;;;;;;-1.98;48.46;100794.69;4848617;29;19935;-82
2023/02/16 14:39:01;;;;;;;;;;;;;;;-2.15;48.10;100797.13;4848009;29;19988;-80
2023/02/16 14:41:38;;;;;;;;;;;;;;;-2.20;48.59;100800.19;4837101;29;19924;-83
2023/02/16 14:44:34;;;;;;;;;;;;;;;-2.28;48.68;100797.19;4847491;29;19934;-83
2023/02/16 14:47:12;;;;;;;;;;;;;;;-2.37;48.95;100797.53;4833125;29;19953;-84
2023/02/16 14:49:57;;;;;;;;;;;;;;;-2.44;48.62;100800.53;4848449;29;20068;-85
2023/02/16 14:52:28;;;;;;;;;;;;;;;-2.50;49.04;100801.00;4832743;29;19976;-85
2023/02/16 14:54:54;;;;;;;;;;;;;;;-2.60;48.33;100801.28;4834133;29;19924;-86
2023/02/16 14:57:38;;;;;;;;;;;;;;;-2.79;48.19;100807.81;4837078;29;20030;-87
2023/02/16 15:00:18;;;;;;;;;;;;;;;-2.91;48.69;100804.47;4865783;29;20070;-86
2023/02/16 15:03:00;;;;;;;;;;;;;;;-2.89;49.29;100810.56;4850455;29;19924;-86
2023/02/16 15:05:47;;;;;;;;;;;;;;;-2.88;49.07;100815.75;4850011;29;19924;-86
2023/02/16 15:08:16;;;;;;;;;;;;;;;-2.91;49.35;100815.56;4813786;29;19937;-84
2023/02/16 15:10:52;;;;;;;;;;;;;;;-2.99;49.30;100811.66;4848690;29;19983;-83
2023/02/16 15:13:38;;;;;;;;;;;;;;;-2.93;49.31;100816.25;4819083;29;19950;-84
2023/02/16 15:16:12;;;;;;;;;;;;;;;-2.89;49.66;100805.47;4833604;29;20312;-83
2023/02/16 15:19:15;;;;;;;;;;;;;;;-2.84;49.74;100814.28;4833563;29;19924;-83
2023/02/16 15:22:07;;;;;;;;;;;;;;;-2.82;49.67;100815.25;4835142;29;19928;-82
2023/02/16 15:24:33;;;;;;;;;;;;;;;-2.85;49.17;100811.63;4865474;29;19924;-84
2023/02/16 15:27:00;;;;;;;;;;;;;;;-2.91;49.60;100818.13;4851029;29;20447;-83
2023/02/16 15:29:46;;;;;;;;;;;;;;;-2.97;49.72;100804.09;4834928;29;19924;-85
2023/02/16 15:32:17;;;;;;;;;;;;;;;-3.03;49.78;100812.25;4827186;29;19928;-81
2023/02/16 15:34:43;;;;;;;;;;;;;;;-3.13;49.62;100803.16;4821692;29;19928;-84
2023/02/16 15:40:42;;;;;;;;;;;;;;;-3.26;49.76;100814.22;4854496;29;19988;-84
2023/02/16 15:43:16;;;;;;;;;;;;;;;-3.31;49.05;100812.19;4847173;29;19924;-82
2023/02/16 15:45:52;;;;;;;;;;;;;;;-3.46;49.91;100822.25;4866987;29;19934;-83
2023/02/16 15:48:29;;;;;;;;;;;;;;;-3.50;50.13;100821.19;4839442;29;19924;-83
2023/02/16 15:51:08;;;;;;;;;;;;;;;-3.57;49.71;100827.56;4856435;29;19924;-82
2023/02/16 15:53:38;;;;;;;;;;;;;;;-3.70;50.10;100825.88;4846328;29;19928;-83
2023/02/16 15:56:19;;;;;;;;;;;;;;;-3.75;50.54;100832.31;4846944;29;20396;-83
2023/02/16 15:58:47;;;;;;;;;;;;;;;-3.76;50.11;100825.47;4846592;29;19999;-84
2023/02/16 16:01:19;;;;;;;;;;;;;;;-3.79;51.03;100828.72;4845635;29;19991;-84
2023/02/16 16:03:48;;;;;;;;;;;;;;;-3.79;50.95;100832.91;4834766;29;20406;-83
2023/02/16 16:06:15;;;;;;;;;;;;;;;-3.76;50.50;100832.25;4833043;29;19930;-82
2023/02/16 16:08:47;;;;;;;;;;;;;;;-3.76;50.48;100830.56;4848087;29;19924;-80
2023/02/16 16:20:27;;;;;;;;;;;;;;;-3.75;50.80;100844.19;4784567;29;19959;-80
2023/02/16 16:22:55;;;;;;;;;;;;;;;-3.69;50.69;100844.56;4790382;29;19925;-83
2023/02/16 16:25:42;;;;;;;;;;;;;;;-3.58;51.43;100845.25;4828193;29;20022;-83
2023/02/16 16:28:13;;;;;;;;;;;;;;;-3.49;50.60;100849.28;4847187;29;19924;-83
2023/02/16 16:30:44;;;;;;;;;;;;;;;-3.51;50.97;100847.44;4822035;29;19924;-83
2023/02/16 16:33:14;;;;;;;;;;;;;;;-3.57;51.02;100850.47;4845211;29;19930;-81
2023/02/16 16:35:50;;;;;;;;;;;;;;;-3.85;50.10;100845.22;4862947;29;19934;-83
2023/02/16 16:38:31;;;;;;;;;;;;;;;-4.09;51.27;100847.91;4846376;29;19992;-82
2023/02/16 16:41:03;;;;;;;;;;;;;;;-4.25;51.27;100854.50;4837463;29;19924;-83
2023/02/16 16:56:04;;;;;;;;;;;;;;;-4.56;52.67;100841.34;4825188;29;19984;-82
2023/02/16 16:58:30;;;;;;;;;;;;;;;-4.50;52.38;100845.97;4866862;29;20004;-83
2023/02/16 17:00:58;;;;;;;;;;;;;;;-4.46;52.35;100847.94;4863604;29;20332;-79
2023/02/16 17:03:25;;;;;;;;;;;;;;;-4.52;52.39;100843.34;4845281;29;20002;-82
2023/02/16 17:05:57;;;;;;;;;;;;;;;-4.70;52.23;100843.84;4833224;29;19928;-85
2023/02/16 17:08:28;;;;;;;;;;;;;;;-4.77;53.14;100850.94;4834061;29;20014;-81
2023/02/16 17:11:00;;;;;;;;;;;;;;;-4.88;52.21;100847.66;4830466;29;20411;-84
2023/02/16 17:13:26;;;;;;;;;;;;;;;-5.00;53.12;100847.66;4830852;29;20605;-85
2023/02/16 17:16:03;;;;;;;;;;;;;;;-5.13;53.28;100843.38;4852364;29;20024;-83
2023/02/16 17:18:29;;;;;;;;;;;;;;;-5.23;53.41;100849.44;4832260;29;19924;-83
2023/02/16 17:20:57;;;;;;;;;;;;;;;-5.23;53.46;100859.59;4849863;29;19938;-85
2023/02/16 17:23:23;;;;;;;;;;;;;;;-5.39;52.32;100862.69;4836556;29;19935;-84
2023/02/16 17:25:54;;;;;;;;;;;;;;;-5.45;53.46;100859.69;4850664;29;19924;-80
2023/02/16 17:28:25;;;;;;;;;;;;;;;-5.42;54.07;100856.50;4828800;29;19979;-84
2023/02/16 17:31:24;;;;;;;;;;;;;;;-5.46;54.09;100860.47;4829045;29;19924;-85
2023/02/16 17:37:46;;;;;;;;;;;;;;;-5.69;54.45;100861.34;4805366;29;19936;-82
2023/02/16 17:40:40;;;;;;;;;;;;;;;-5.73;54.23;100857.66;4806008;29;19933;-85
2023/02/16 17:43:28;;;;;;;;;;;;;;;-5.79;54.82;100863.19;4809383;29;20640;-82
2023/02/16 17:46:03;;;;;;;;;;;;;;;-5.73;54.54;100866.94;4819598;29;19924;-85
2023/02/16 17:48:38;;;;;;;;;;;;;;;-5.76;54.54;100860.88;4833652;29;19924;-84
2023/02/16 17:51:26;;;;;;;;;;;;;;;-5.68;54.16;100873.25;4845214;29;19931;-82
2023/02/16 17:54:08;;;;;;;;;;;;;;;-5.91;55.09;100868.22;4858726;29;19923;-84
2023/02/16 17:57:02;;;;;;;;;;;;;;;;;;;;;
2023/02/16 17:59:33;;;;;;;;;;;;;;;-5.99;54.67;100861.72;4901605;23;19974;-85
2023/02/16 18:02:10;;;;;;;;;;;;;;;-6.11;54.41;100860.81;4846807;29;19975;-85
2023/02/16 18:04:56;;;;;;;;;;;;;;;-6.00;55.21;100865.06;4893669;29;19950;-85
2023/02/16 18:07:22;;;;;;;;;;;;;;;-5.87;55.25;100871.88;4872122;29;19999;-86
2023/02/16 18:09:48;;;;;;;;;;;;;;;-5.73;55.32;100877.09;4889859;29;19928;-86
2023/02/16 18:12:20;;;;;;;;;;;;;;;-5.59;54.91;100878.97;4868253;29;19928;-85
2023/02/16 18:14:46;;;;;;;;;;;;;;;-5.60;55.11;100874.69;4851638;29;19930;-83